createdAt,value
2018-10-15T00:00:02.644Z,12.3
2018-10-15T00:05:02.414Z,12.3
2018-10-15T00:10:38.632Z,12.1
2018-10-15T00:15:33.337Z,12
2018-10-15T00:20:02.832Z,12
2018-10-15T00:25:03.176Z,12
2018-10-15T00:30:10.144Z,11.9
2018-10-15T00:35:18.052Z,11.8
2018-10-15T00:40:07.912Z,11.7
2018-10-15T00:45:20.958Z,11.7
2018-10-15T00:50:05.867Z,11.6
2018-10-15T00:55:10.475Z,11.6
2018-10-15T01:00:07.904Z,11.6
2018-10-15T01:05:03.249Z,11.6
2018-10-15T01:10:03.196Z,11.5
2018-10-15T01:15:10.130Z,11.4
2018-10-15T01:20:12.676Z,11.3
2018-10-15T01:25:23.161Z,11.3
2018-10-15T01:30:05.069Z,11.2
2018-10-15T01:35:05.370Z,11.3
2018-10-15T01:40:05.771Z,11.2
2018-10-15T01:45:10.181Z,11.1
2018-10-15T01:50:17.675Z,11.1
2018-10-15T01:55:05.381Z,11
2018-10-15T02:00:07.821Z,11
2018-10-15T02:05:23.335Z,10.9
2018-10-15T02:10:03.115Z,10.9
2018-10-15T02:15:27.790Z,10.8
2018-10-15T02:20:10.845Z,10.8
2018-10-15T02:25:17.726Z,10.8
2018-10-15T02:35:05.801Z,10.8
2018-10-15T02:40:02.627Z,10.7
2018-10-15T02:45:02.909Z,10.7
2018-10-15T02:50:05.745Z,10.5
2018-10-15T02:55:07.640Z,10.3
2018-10-15T03:00:02.955Z,10.3
2018-10-15T03:05:10.912Z,10.3
2018-10-15T03:10:05.241Z,10.2
2018-10-15T03:15:08.149Z,10.2
2018-10-15T03:25:02.849Z,10.1
2018-10-15T03:30:28.505Z,10.1
2018-10-15T03:35:02.806Z,10.1
2018-10-15T03:40:02.636Z,10.1
2018-10-15T03:45:13.205Z,9.9
2018-10-15T03:50:32.958Z,9.8
2018-10-15T03:55:05.818Z,9.8
2018-10-15T04:00:03.130Z,9.8
2018-10-15T04:05:02.767Z,9.8
2018-10-15T04:10:05.292Z,9.7
2018-10-15T04:15:10.907Z,9.7
2018-10-15T04:20:08.411Z,9.6
2018-10-15T04:25:07.797Z,9.6
2018-10-15T04:30:05.678Z,9.5
2018-10-15T04:35:17.708Z,9.5
2018-10-15T04:40:22.928Z,9.5
2018-10-15T04:45:08.121Z,9.4
2018-10-15T04:50:02.520Z,9.4
2018-10-15T04:55:15.683Z,9.3
2018-10-15T05:00:05.736Z,9.2
2018-10-15T05:05:05.412Z,9.2
2018-10-15T05:10:17.711Z,9.1
2018-10-15T05:15:05.546Z,9.1
2018-10-15T05:20:08.405Z,9.1
2018-10-15T05:25:18.138Z,9.1
2018-10-15T05:30:07.650Z,9.1
2018-10-15T05:35:07.450Z,9.1
2018-10-15T05:40:05.164Z,9
2018-10-15T05:45:20.107Z,8.9
2018-10-15T05:50:13.090Z,8.9
2018-10-15T05:55:17.907Z,8.9
2018-10-15T06:00:05.884Z,8.9
2018-10-15T06:05:15.486Z,8.9
2018-10-15T06:10:02.665Z,8.9
2018-10-15T06:15:10.172Z,8.9
2018-10-15T06:20:07.857Z,9
2018-10-15T06:25:02.398Z,9
2018-10-15T06:30:05.366Z,9.2
2018-10-15T06:35:10.044Z,9.2
2018-10-15T06:40:27.721Z,9.3
2018-10-15T06:45:18.597Z,9.3
2018-10-15T06:50:20.075Z,9.4
2018-10-15T07:00:20.772Z,9.6
2018-10-15T07:05:20.958Z,9.7
2018-10-15T07:10:08.160Z,9.9
2018-10-15T07:15:30.938Z,10
2018-10-15T07:20:20.651Z,10.2
2018-10-15T07:25:08.011Z,10.3
2018-10-15T07:30:05.282Z,10.5
2018-10-15T07:35:02.988Z,10.5
2018-10-15T07:40:22.792Z,10.9
2018-10-15T07:45:02.731Z,10.9
2018-10-15T07:50:07.781Z,11.4
2018-10-15T07:55:08.010Z,11.7
2018-10-15T08:00:28.486Z,12
2018-10-15T08:05:30.541Z,12.2
2018-10-15T08:10:05.468Z,12.5
2018-10-15T08:15:08.049Z,12.7
2018-10-15T08:20:05.577Z,12.9
2018-10-15T08:30:10.317Z,13.4
2018-10-15T08:35:05.629Z,13.6
2018-10-15T08:40:10.128Z,13.8
2018-10-15T08:45:03.222Z,13.8
2018-10-15T08:50:05.301Z,14.2
2018-10-15T09:00:05.167Z,14.6
2018-10-15T09:05:03.090Z,14.5
2018-10-15T09:10:30.328Z,14.9
2018-10-15T09:20:03.437Z,15.2
2018-10-15T09:25:05.403Z,15.6
2018-10-15T09:30:18.193Z,15.8
2018-10-15T09:35:20.266Z,15.9
2018-10-15T09:45:05.259Z,16.4
2018-10-15T09:50:03.031Z,16.4
2018-10-15T09:55:05.057Z,16.8
2018-10-15T10:00:05.373Z,17
2018-10-15T10:05:05.846Z,17.1
2018-10-15T10:10:08.122Z,17.4
2018-10-15T10:15:05.503Z,17.7
2018-10-15T10:20:15.556Z,17.9
2018-10-15T10:25:10.371Z,18
2018-10-15T10:35:17.919Z,18.3
2018-10-15T10:40:05.476Z,18.4
2018-10-15T10:45:03.033Z,18.4
2018-10-15T10:50:17.941Z,18.6
2018-10-15T10:55:28.498Z,18.8
2018-10-15T11:00:05.410Z,18.9
2018-10-15T11:05:05.449Z,19.2
2018-10-15T11:10:17.670Z,19.2
2018-10-15T11:15:10.477Z,19.3
2018-10-15T11:20:08.278Z,19.5
2018-10-15T11:25:05.412Z,19.7
2018-10-15T11:30:02.840Z,19.7
2018-10-15T11:40:15.128Z,20.3
2018-10-15T11:45:03.201Z,20.3
2018-10-15T11:50:07.691Z,20.2
2018-10-15T11:55:10.652Z,20.1
2018-10-15T12:00:03.106Z,20.2
2018-10-15T12:05:07.588Z,20.2
2018-10-15T12:10:07.556Z,20.7
2018-10-15T12:15:25.744Z,21.2
2018-10-15T12:20:13.387Z,21.5
2018-10-15T12:25:08.005Z,21.4
2018-10-15T12:30:10.069Z,21.2
2018-10-15T12:35:18.161Z,21.1
2018-10-15T12:40:13.199Z,21.1
2018-10-15T12:45:17.795Z,21.4
2018-10-15T12:50:05.761Z,22.1
2018-10-15T12:55:17.872Z,23.3
2018-10-15T13:00:21.006Z,23.8
2018-10-15T13:05:05.625Z,20.9
2018-10-15T13:10:10.145Z,24.9
2018-10-15T13:20:05.088Z,25.2
2018-10-15T13:25:05.444Z,25.3
2018-10-15T13:30:03.034Z,25.3
2018-10-15T13:35:15.172Z,25.4
2018-10-15T13:40:03.144Z,25.4
2018-10-15T13:45:07.832Z,26.1
2018-10-15T13:50:10.015Z,26
2018-10-15T13:55:03.024Z,26
2018-10-15T14:00:12.608Z,26.5
2018-10-15T14:05:13.313Z,25.9
2018-10-15T14:10:02.532Z,25.9
2018-10-15T14:15:10.647Z,24.1
2018-10-15T14:20:03.171Z,24.1
2018-10-15T14:25:25.503Z,23.4
2018-10-15T14:30:35.908Z,22.8
2018-10-15T14:35:04.986Z,22.4
2018-10-15T14:40:02.962Z,22.4
2018-10-15T14:45:02.509Z,22.1
2018-10-15T14:50:02.990Z,21.6
2018-10-15T14:55:07.610Z,21.6
2018-10-15T15:00:12.625Z,21.8
2018-10-15T15:05:05.543Z,21.9
2018-10-15T15:10:02.613Z,21.9
2018-10-15T15:15:15.561Z,22.1
2018-10-15T15:20:18.314Z,22.1
2018-10-15T15:25:10.156Z,21.8
2018-10-15T15:30:07.645Z,21.5
2018-10-15T15:35:03.333Z,21.5
2018-10-15T15:40:20.537Z,20.9
2018-10-15T15:45:05.805Z,20.7
2018-10-15T15:50:03.300Z,20.7
2018-10-15T15:55:10.357Z,20.3
2018-10-15T16:00:07.903Z,20.1
2018-10-15T16:05:10.878Z,19.9
2018-10-15T16:10:02.748Z,19.9
2018-10-15T16:15:03.149Z,19.4
2018-10-15T16:20:02.619Z,19.7
2018-10-15T16:25:28.421Z,19.3
2018-10-15T16:30:07.933Z,19.2
2018-10-15T16:35:03.331Z,19.2
2018-10-15T16:40:05.770Z,18.9
2018-10-15T16:45:05.275Z,18.7
2018-10-15T16:50:10.257Z,18.5
2018-10-15T16:55:08.195Z,18.3
2018-10-15T17:00:10.205Z,18.1
2018-10-15T17:05:10.680Z,17.9
2018-10-15T17:10:10.132Z,17.8
2018-10-15T17:15:23.513Z,17.6
2018-10-15T17:20:02.906Z,17.6
2018-10-15T17:25:07.465Z,17.3
2018-10-15T17:30:10.651Z,17.2
2018-10-15T17:35:07.476Z,17
2018-10-15T17:40:31.241Z,16.8
2018-10-15T17:45:17.883Z,16.7
2018-10-15T17:50:31.131Z,16.6
2018-10-15T17:55:05.254Z,16.5
2018-10-15T18:00:02.682Z,16.5
2018-10-15T18:05:38.555Z,16.3
2018-10-15T18:10:20.170Z,16.1
2018-10-15T18:20:15.966Z,15.8
2018-10-15T18:25:05.257Z,15.7
2018-10-15T18:30:05.176Z,15.5
2018-10-15T18:35:05.646Z,15.4
2018-10-15T18:40:12.741Z,15.2
2018-10-15T18:45:03.099Z,15.2
2018-10-15T18:50:07.611Z,14.9
2018-10-15T18:55:13.070Z,14.7
2018-10-15T19:00:17.614Z,14.6
2018-10-15T19:05:07.992Z,14.4
2018-10-15T19:10:02.808Z,14.4
2018-10-15T19:15:23.405Z,14.1
2018-10-15T19:25:10.722Z,14
2018-10-15T19:30:09.985Z,13.7
2018-10-15T19:35:15.482Z,13.6
2018-10-15T19:40:04.989Z,13.4
2018-10-15T19:45:10.517Z,13.2
2018-10-15T19:50:02.869Z,13.2
2018-10-15T19:55:13.518Z,13.1
2018-10-15T20:00:26.028Z,13.1
2018-10-15T20:10:03.358Z,13
2018-10-15T20:15:15.575Z,12.8
2018-10-15T20:20:13.101Z,12.8
2018-10-15T20:30:17.833Z,12.6
2018-10-15T20:35:20.855Z,12.6
2018-10-15T20:40:05.449Z,12.6
2018-10-15T20:45:08.374Z,12.5
2018-10-15T20:50:05.270Z,12.5
2018-10-15T20:55:20.920Z,12.4
2018-10-15T21:00:26.075Z,12.4
2018-10-15T21:05:07.906Z,12.4
2018-10-15T21:10:02.892Z,12.4
2018-10-15T21:15:05.207Z,12.5
2018-10-15T21:20:15.324Z,12.4
2018-10-15T21:25:05.545Z,12.3
2018-10-15T21:30:07.614Z,12.2
2018-10-15T21:35:05.428Z,12.1
2018-10-15T21:40:26.126Z,12.1
2018-10-15T21:45:35.383Z,12
2018-10-15T21:50:10.655Z,11.9
2018-10-15T22:00:07.800Z,11.6
2018-10-15T22:05:03.164Z,11.6
2018-10-15T22:15:05.356Z,11.4
2018-10-15T22:20:03.143Z,11.4
2018-10-15T22:25:22.745Z,11.3
2018-10-15T22:30:02.454Z,11.3
2018-10-15T22:35:35.745Z,11.3
2018-10-15T22:40:05.147Z,11.2
2018-10-15T22:45:15.617Z,11.2
2018-10-15T22:50:08.013Z,11.2
2018-10-15T22:55:12.624Z,11.2
2018-10-15T23:00:03.073Z,11.2
2018-10-15T23:05:02.426Z,11.2
2018-10-15T23:10:03.352Z,11.1
2018-10-15T23:15:10.272Z,11
2018-10-15T23:20:05.230Z,10.9
2018-10-15T23:25:03.059Z,10.9
2018-10-15T23:30:02.505Z,10.8
2018-10-15T23:35:08.001Z,10.5
2018-10-15T23:40:20.564Z,10.4
2018-10-15T23:50:12.612Z,10.1
2018-10-15T23:55:07.968Z,10
